Terminal Aerodrome Forecast
Issued by NWS Memphis, TN

Home | Current Version | Previous Version | Text Only | Print | Product List | Glossary On
Versions: 1 2 3 4 5 6 7 8 9 10 11 12 13 14
000
FTUS44 KMEG 301130
TAFMKL
TAF
KMKL 301130Z 3012/0112 15004KT P6SM VCTS BKN035CB OVC100
      TEMPO 3012/3016 3SM TSRA BR BKN015CB
     FM301600 17007KT P6SM VCSH SCT050 BKN150
     FM010000 16004KT P6SM VCTS OVC040CB
     FM010600 18004KT P6SM VCSH SCT035 BKN150=

USA.gov is the U.S. government's official web portal to all federal, state and local government web resources and services.